Time;durP1;ratioP1;P1;durP2;ratioP2;P2;SDS_P1;SDS_P2;PMS_P1;PMS_P2;Temp;Humidity;BMP_temperature;BMP_pressure;BME280_temperature;BME280_humidity;BME280_pressure;Samples;Min_cycle;Max_cycle;Signal;HPM_P1;HPM_P2
2024/03/27 00:00:39;;;;;;;3.67;1.47;;;8.70;91.70;;;;;;2027616;29;20615;-71
2024/03/27 00:01:40;;;;;;;3.50;1.42;;;8.60;91.60;;;;;;2025015;29;20228;-71
2024/03/27 00:02:41;;;;;;;2.03;1.30;;;8.60;91.50;;;;;;2031223;29;20282;-72
2024/03/27 00:03:41;;;;;;;3.07;1.60;;;8.70;91.10;;;;;;2031255;29;20244;-72
2024/03/27 00:04:42;;;;;;;3.07;1.37;;;8.60;90.70;;;;;;2026270;29;20309;-70
2024/03/27 00:05:43;;;;;;;3.53;1.70;;;8.60;91.00;;;;;;2027419;29;20224;-71
2024/03/27 00:06:44;;;;;;;1.70;1.10;;;8.60;91.60;;;;;;2026936;29;20227;-71
2024/03/27 00:07:44;;;;;;;1.90;1.20;;;8.50;91.40;;;;;;2027638;29;20255;-72
2024/03/27 00:08:45;;;;;;;3.80;1.20;;;8.40;91.50;;;;;;2022379;29;20236;-72
2024/03/27 00:09:46;;;;;;;2.90;1.20;;;8.40;91.70;;;;;;2029948;29;20811;-70
2024/03/27 00:10:47;;;;;;;3.22;1.63;;;8.30;92.10;;;;;;2038252;29;20313;-73
2024/03/27 00:11:50;;;;;;;2.53;1.30;;;8.20;92.50;;;;;;2025743;29;20221;-71
2024/03/27 00:12:50;;;;;;;1.83;1.05;;;8.20;92.50;;;;;;2015201;29;20230;-73
2024/03/27 00:13:51;;;;;;;3.23;1.63;;;8.20;92.50;;;;;;2031494;29;20255;-71
2024/03/27 00:14:52;;;;;;;3.07;1.33;;;8.20;92.90;;;;;;2037960;29;20662;-71
2024/03/27 00:15:54;;;;;;;4.37;1.10;;;8.20;92.60;;;;;;2022593;29;20237;-71
2024/03/27 00:16:55;;;;;;;2.85;1.13;;;8.20;92.60;;;;;;2014611;29;20237;-71
2024/03/27 00:17:55;;;;;;;1.90;1.00;;;8.20;92.40;;;;;;2022531;29;20232;-71
2024/03/27 00:18:56;;;;;;;2.53;1.20;;;8.10;92.40;;;;;;2031209;29;20717;-71
2024/03/27 00:19:57;;;;;;;4.17;1.20;;;8.10;92.30;;;;;;2029612;29;20231;-71
2024/03/27 00:20:58;;;;;;;3.17;1.30;;;8.10;92.20;;;;;;2038536;29;20235;-71
2024/03/27 00:21:59;;;;;;;1.83;1.25;;;8.00;92.40;;;;;;2038217;29;20243;-71
2024/03/27 00:23:00;;;;;;;2.80;1.30;;;8.00;92.70;;;;;;2038086;29;20657;-71
2024/03/27 00:24:00;;;;;;;1.70;1.20;;;8.00;92.80;;;;;;2038085;29;20295;-71
2024/03/27 00:25:01;;;;;;;5.03;1.30;;;8.00;92.80;;;;;;2036454;29;20223;-71
2024/03/27 00:26:02;;;;;;;4.87;1.60;;;8.10;92.90;;;;;;2028829;29;20194;-70
2024/03/27 00:27:03;;;;;;;3.25;1.10;;;7.90;92.90;;;;;;2023194;29;20198;-71
2024/03/27 00:28:04;;;;;;;2.90;1.57;;;7.90;92.80;;;;;;2029684;29;20284;-71
2024/03/27 00:29:04;;;;;;;1.13;1.03;;;7.90;93.00;;;;;;2021779;29;20227;-71
2024/03/27 00:30:06;;;;;;;2.60;1.33;;;7.80;93.10;;;;;;2022987;29;20195;-71
2024/03/27 00:31:07;;;;;;;1.88;1.38;;;7.70;93.10;;;;;;2037211;29;20228;-71
2024/03/27 00:32:08;;;;;;;3.40;1.13;;;7.80;93.00;;;;;;2030969;29;20203;-71
2024/03/27 00:33:14;;;;;;;2.23;1.43;;;7.70;92.80;;;;;;2022227;29;20192;-71
2024/03/27 00:34:17;;;;;;;2.17;0.98;;;7.70;92.80;;;;;;2030008;29;20293;-71
2024/03/27 00:35:18;;;;;;;1.58;1.23;;;7.70;92.90;;;;;;2021812;29;20680;-71
2024/03/27 00:36:19;;;;;;;2.40;1.03;;;7.60;92.80;;;;;;2030720;29;20180;-71
2024/03/27 00:37:19;;;;;;;2.83;1.20;;;7.60;92.90;;;;;;2037553;29;20185;-71
2024/03/27 00:38:20;;;;;;;2.70;1.20;;;7.60;92.80;;;;;;2030520;29;20189;-71
2024/03/27 00:39:21;;;;;;;4.60;1.20;;;7.60;92.80;;;;;;2021755;29;20237;-71
2024/03/27 00:40:22;;;;;;;1.70;1.20;;;7.60;92.70;;;;;;2031035;29;20498;-71
2024/03/27 00:41:23;;;;;;;1.40;1.30;;;7.70;92.90;;;;;;2030668;29;20320;-71
2024/03/27 00:42:24;;;;;;;2.55;1.30;;;7.70;92.80;;;;;;2006549;29;20235;-71
2024/03/27 00:43:24;;;;;;;5.33;1.63;;;7.60;92.90;;;;;;2004151;29;20241;-71
2024/03/27 00:44:26;;;;;;;2.73;1.33;;;7.50;92.90;;;;;;2013961;29;20245;-72
2024/03/27 00:45:27;;;;;;;2.05;1.00;;;7.50;92.80;;;;;;2014572;29;20730;-71
2024/03/27 00:46:28;;;;;;;3.73;1.30;;;7.50;92.60;;;;;;2021838;29;20231;-71
2024/03/27 00:47:28;;;;;;;2.87;1.17;;;7.50;92.40;;;;;;2031953;29;20231;-71
2024/03/27 00:48:30;;;;;;;1.83;1.13;;;7.60;92.30;;;;;;2022361;29;20266;-71
2024/03/27 00:49:31;;;;;;;1.45;1.10;;;7.50;92.40;;;;;;2022074;29;20241;-71
2024/03/27 00:50:32;;;;;;;2.90;1.33;;;7.40;92.60;;;;;;2029980;29;20307;-71
2024/03/27 00:51:33;;;;;;;1.57;1.00;;;7.40;93.00;;;;;;2030452;29;20241;-71
2024/03/27 00:52:34;;;;;;;2.00;1.20;;;7.30;93.20;;;;;;2015027;29;20230;-71
2024/03/27 00:53:34;;;;;;;5.05;1.00;;;7.20;93.50;;;;;;2030058;29;20692;-71
2024/03/27 00:54:35;;;;;;;1.97;1.20;;;7.10;93.90;;;;;;2037620;29;20232;-71
2024/03/27 00:55:36;;;;;;;1.67;1.17;;;7.00;94.10;;;;;;2033351;29;20236;-71
2024/03/27 00:56:37;;;;;;;4.03;1.20;;;7.00;94.20;;;;;;2027270;29;20735;-71
2024/03/27 00:57:38;;;;;;;1.73;0.98;;;7.00;94.40;;;;;;2022110;29;20229;-71
2024/03/27 00:58:38;;;;;;;1.63;1.00;;;6.90;94.50;;;;;;2026058;29;20256;-71
2024/03/27 00:59:39;;;;;;;3.70;1.00;;;6.90;94.80;;;;;;2033943;29;20232;-71
2024/03/27 01:00:41;;;;;;;1.33;1.00;;;6.90;94.90;;;;;;2038853;29;20232;-71
2024/03/27 01:01:41;;;;;;;2.60;1.38;;;6.90;94.90;;;;;;2038015;29;20729;-71
2024/03/27 01:02:45;;;;;;;3.53;1.57;;;6.90;94.90;;;;;;2037563;29;20330;-71
2024/03/27 01:03:46;;;;;;;2.20;1.27;;;6.90;94.90;;;;;;2023033;29;20242;-71
2024/03/27 01:04:50;;;;;;;3.73;1.40;;;6.90;94.80;;;;;;2018455;29;20233;-72
2024/03/27 01:05:51;;;;;;;2.58;1.30;;;6.90;94.80;;;;;;2034105;29;20232;-71
2024/03/27 01:06:52;;;;;;;1.75;1.45;;;6.90;94.90;;;;;;2037989;29;20240;-71
2024/03/27 01:07:53;;;;;;;2.23;1.10;;;6.80;94.70;;;;;;2025979;29;20910;-71
2024/03/27 01:08:54;;;;;;;2.22;1.27;;;6.80;94.60;;;;;;2033847;29;20238;-71
2024/03/27 01:09:55;;;;;;;3.77;1.37;;;6.80;94.60;;;;;;2029872;29;20264;-71
2024/03/27 01:10:55;;;;;;;5.50;1.23;;;6.70;94.50;;;;;;2023073;29;20225;-71
2024/03/27 01:11:56;;;;;;;3.80;1.20;;;6.70;94.50;;;;;;2037980;29;20228;-71
2024/03/27 01:12:57;;;;;;;5.80;1.40;;;6.60;94.80;;;;;;2037733;29;20739;-71
2024/03/27 01:13:59;;;;;;;3.20;1.30;;;6.60;95.00;;;;;;2034074;29;20311;-71
2024/03/27 01:14:59;;;;;;;3.13;1.30;;;6.50;95.30;;;;;;2037680;29;20294;-71
2024/03/27 01:16:00;;;;;;;1.50;1.40;;;6.50;95.40;;;;;;2030625;29;20681;-71
2024/03/27 01:17:01;;;;;;;2.43;1.33;;;6.60;95.50;;;;;;2029299;29;23002;-70
2024/03/27 01:18:04;;;;;;;2.80;1.00;;;6.60;95.40;;;;;;2030161;29;20336;-71
2024/03/27 01:19:04;;;;;;;4.72;1.17;;;6.60;95.40;;;;;;2018312;29;20206;-71
2024/03/27 01:20:09;;;;;;;9.27;1.87;;;6.50;95.40;;;;;;2025736;29;20293;-71
2024/03/27 01:21:09;;;;;;;3.97;1.27;;;6.60;95.30;;;;;;2038224;29;20203;-71
2024/03/27 01:22:10;;;;;;;1.70;1.00;;;6.60;95.60;;;;;;2029864;29;20232;-71
2024/03/27 01:23:11;;;;;;;4.30;1.27;;;6.40;95.60;;;;;;2029930;29;20287;-71
2024/03/27 01:24:12;;;;;;;2.58;1.00;;;6.40;95.70;;;;;;2029959;29;20197;-71
2024/03/27 01:25:13;;;;;;;1.63;1.00;;;6.40;95.60;;;;;;2027008;29;20196;-71
2024/03/27 01:26:13;;;;;;;1.93;0.97;;;6.40;95.60;;;;;;2026323;29;20185;-72
2024/03/27 01:27:14;;;;;;;2.83;1.23;;;6.50;95.60;;;;;;2025895;29;20192;-71
2024/03/27 01:28:15;;;;;;;1.23;0.90;;;6.40;95.70;;;;;;2033878;29;20195;-72
2024/03/27 01:29:15;;;;;;;3.30;1.13;;;6.40;95.80;;;;;;2037320;29;20251;-71
2024/03/27 01:30:16;;;;;;;2.20;1.30;;;6.40;96.20;;;;;;2019523;29;20230;-71
2024/03/27 01:31:17;;;;;;;2.13;1.20;;;6.30;96.10;;;;;;2018633;29;20186;-71
2024/03/27 01:32:17;;;;;;;1.47;1.00;;;6.30;96.10;;;;;;2022038;29;20198;-71
2024/03/27 01:33:19;;;;;;;1.20;0.97;;;6.30;96.20;;;;;;2014504;29;20273;-72
2024/03/27 01:34:20;;;;;;;2.15;1.00;;;6.20;96.30;;;;;;2022757;29;20202;-72
2024/03/27 01:35:21;;;;;;;3.33;1.20;;;6.30;96.60;;;;;;2022561;29;20260;-71
2024/03/27 01:36:21;;;;;;;2.57;1.03;;;6.20;96.50;;;;;;2022318;29;20661;-71
2024/03/27 01:37:22;;;;;;;1.60;1.03;;;6.20;96.60;;;;;;2022210;29;20284;-71
2024/03/27 01:38:23;;;;;;;6.03;1.20;;;6.20;96.60;;;;;;2014624;29;20316;-71
2024/03/27 01:39:23;;;;;;;2.37;1.20;;;6.20;96.80;;;;;;2014224;29;20234;-71
2024/03/27 01:40:24;;;;;;;1.80;1.10;;;6.10;96.90;;;;;;2031003;29;20240;-71
2024/03/27 01:41:25;;;;;;;2.77;1.27;;;6.10;96.80;;;;;;2029796;29;20243;-71
2024/03/27 01:42:25;;;;;;;2.10;1.10;;;6.20;96.80;;;;;;2022039;29;20233;-71
2024/03/27 01:43:26;;;;;;;1.40;0.97;;;6.10;96.50;;;;;;2029920;29;20236;-71
2024/03/27 01:44:27;;;;;;;1.77;1.10;;;6.10;96.00;;;;;;2030343;29;20701;-71
2024/03/27 01:45:30;;;;;;;2.10;1.00;;;6.20;95.80;;;;;;2023114;29;20292;-71
2024/03/27 01:46:31;;;;;;;2.97;1.38;;;6.20;96.10;;;;;;2007010;29;20234;-71
2024/03/27 01:47:32;;;;;;;1.97;1.17;;;6.10;96.10;;;;;;2014494;29;20962;-71
2024/03/27 01:48:33;;;;;;;2.97;1.00;;;6.00;96.10;;;;;;2022184;29;20714;-71
2024/03/27 01:49:34;;;;;;;3.90;1.17;;;6.00;96.10;;;;;;2023024;29;20236;-71
2024/03/27 01:50:35;;;;;;;2.42;0.90;;;6.10;95.90;;;;;;2026521;29;20240;-71
2024/03/27 01:51:36;;;;;;;1.27;1.00;;;6.00;96.00;;;;;;2034307;29;20231;-71
2024/03/27 01:52:39;;;;;;;3.08;1.10;;;6.00;96.60;;;;;;2037296;29;20223;-71
2024/03/27 01:53:39;;;;;;;2.58;1.13;;;5.90;96.00;;;;;;2037835;29;20361;-71
2024/03/27 01:54:40;;;;;;;1.20;1.00;;;6.00;96.00;;;;;;2030142;29;20301;-71
2024/03/27 01:55:41;;;;;;;2.33;1.27;;;6.00;95.90;;;;;;2030118;29;20225;-71
2024/03/27 01:56:43;;;;;;;1.07;0.80;;;5.90;95.80;;;;;;2038659;29;20238;-71
2024/03/27 01:57:44;;;;;;;1.13;0.90;;;5.90;95.50;;;;;;2037646;29;20546;-71
2024/03/27 01:58:45;;;;;;;2.72;0.90;;;5.90;95.40;;;;;;2038630;29;20231;-71
2024/03/27 01:59:47;;;;;;;1.42;0.82;;;5.90;95.20;;;;;;2018050;29;20734;-71
2024/03/27 02:00:48;;;;;;;1.35;1.00;;;5.90;95.20;;;;;;2026144;29;20229;-71
2024/03/27 02:01:49;;;;;;;1.70;0.97;;;5.90;95.30;;;;;;2038229;29;20238;-71
2024/03/27 02:02:51;;;;;;;2.13;0.95;;;6.00;95.00;;;;;;2024585;29;20236;-71
2024/03/27 02:03:52;;;;;;;1.73;0.93;;;6.00;95.00;;;;;;2033294;29;20736;-72
2024/03/27 02:04:53;;;;;;;1.00;0.73;;;6.10;94.30;;;;;;2029523;29;20237;-71
2024/03/27 02:05:54;;;;;;;2.47;0.90;;;6.10;94.60;;;;;;2021583;29;20229;-71
2024/03/27 02:06:56;;;;;;;1.30;0.82;;;6.10;94.60;;;;;;2028912;29;20232;-71
2024/03/27 02:07:57;;;;;;;1.75;1.02;;;6.10;94.60;;;;;;2031409;29;20337;-71
2024/03/27 02:08:57;;;;;;;1.47;0.87;;;6.10;94.60;;;;;;2022731;29;20252;-71
2024/03/27 02:09:58;;;;;;;2.27;1.00;;;6.00;94.60;;;;;;2022636;29;20237;-71
2024/03/27 02:10:59;;;;;;;2.33;1.00;;;6.10;94.90;;;;;;2022859;29;20237;-72
2024/03/27 02:12:00;;;;;;;2.23;0.80;;;6.10;95.30;;;;;;2015196;29;20252;-71
2024/03/27 02:13:01;;;;;;;4.07;1.00;;;6.10;95.40;;;;;;2022717;29;20268;-72
2024/03/27 02:14:01;;;;;;;4.50;0.97;;;6.00;95.60;;;;;;2037662;29;20200;-71
2024/03/27 02:15:07;;;;;;;3.10;1.00;;;6.00;95.70;;;;;;2030826;29;20216;-71
2024/03/27 02:16:07;;;;;;;4.97;1.02;;;5.90;95.70;;;;;;2023568;29;20564;-71
2024/03/27 02:17:09;;;;;;;2.07;0.90;;;5.90;95.80;;;;;;2022078;29;20197;-71
2024/03/27 02:18:09;;;;;;;0.98;0.70;;;5.90;95.90;;;;;;2015021;29;20258;-71
2024/03/27 02:19:10;;;;;;;1.97;0.90;;;5.80;95.90;;;;;;2014029;29;20213;-71
2024/03/27 02:20:11;;;;;;;3.20;1.13;;;5.70;95.80;;;;;;2018299;29;20256;-71
2024/03/27 02:21:12;;;;;;;2.80;1.00;;;5.80;96.00;;;;;;2022877;29;20200;-71
2024/03/27 02:22:13;;;;;;;2.50;0.90;;;5.70;96.00;;;;;;2026100;29;20606;-71
2024/03/27 02:23:19;;;;;;;1.87;0.90;;;5.70;96.10;;;;;;2025703;29;20209;-71
2024/03/27 02:24:52;;;;;;;2.55;1.30;;;5.70;96.40;;;;;;2032000;29;20451;-71
2024/03/27 02:26:08;;;;;;;2.22;1.08;;;5.70;96.80;;;;;;2028950;29;20236;-71
2024/03/27 02:27:09;;;;;;;2.22;1.00;;;5.60;96.80;;;;;;2024098;29;20736;-71
2024/03/27 02:28:11;;;;;;;0.97;0.73;;;5.60;96.90;;;;;;2022642;29;20233;-71
2024/03/27 02:29:12;;;;;;;2.70;0.85;;;5.60;96.90;;;;;;2022396;29;20229;-71
2024/03/27 02:30:12;;;;;;;1.33;0.90;;;5.50;96.70;;;;;;2022370;29;20758;-71
2024/03/27 02:31:13;;;;;;;1.30;0.80;;;5.50;97.00;;;;;;2030553;29;20185;-71
2024/03/27 02:32:14;;;;;;;2.93;0.80;;;5.50;97.20;;;;;;2031203;29;20236;-71
2024/03/27 02:33:14;;;;;;;2.70;1.00;;;5.40;97.30;;;;;;2026890;29;20181;-71
2024/03/27 02:34:15;;;;;;;3.23;1.07;;;5.30;97.30;;;;;;2027500;29;20682;-71
2024/03/27 02:35:18;;;;;;;1.97;1.00;;;5.30;97.30;;;;;;2030705;29;20193;-71
2024/03/27 02:36:19;;;;;;;2.65;0.80;;;5.20;97.40;;;;;;2038701;29;20573;-71
2024/03/27 02:37:20;;;;;;;0.80;0.77;;;5.10;97.40;;;;;;2038830;29;20197;-71
2024/03/27 02:38:23;;;;;;;1.67;0.90;;;5.10;97.60;;;;;;2015875;29;21709;-71
2024/03/27 02:39:24;;;;;;;1.27;0.73;;;5.20;97.80;;;;;;2026189;29;21012;-71
2024/03/27 02:40:24;;;;;;;1.03;0.90;;;5.10;97.70;;;;;;2037679;29;20287;-71
2024/03/27 02:41:25;;;;;;;3.10;1.10;;;5.10;97.80;;;;;;2027493;29;20724;-71
2024/03/27 02:42:26;;;;;;;0.80;0.80;;;5.10;97.80;;;;;;2025488;29;20232;-71
2024/03/27 02:43:27;;;;;;;0.80;0.70;;;5.10;97.70;;;;;;2031418;29;20239;-71
2024/03/27 02:44:27;;;;;;;1.75;0.80;;;5.10;97.60;;;;;;2015295;29;20238;-71
2024/03/27 02:45:28;;;;;;;1.83;1.00;;;5.00;97.70;;;;;;2014245;29;20238;-71
2024/03/27 02:46:29;;;;;;;0.60;0.60;;;5.10;97.90;;;;;;2022428;29;20247;-71
2024/03/27 02:47:29;;;;;;;1.10;0.90;;;5.00;98.00;;;;;;2022038;29;20240;-71
2024/03/27 02:48:30;;;;;;;2.20;0.97;;;5.00;98.30;;;;;;2022128;29;20237;-71
2024/03/27 02:49:31;;;;;;;2.70;0.80;;;5.00;98.30;;;;;;2018482;29;20715;-71
2024/03/27 02:50:31;;;;;;;1.30;1.00;;;5.10;98.50;;;;;;2026113;29;20307;-71
2024/03/27 02:51:32;;;;;;;1.50;0.80;;;5.00;98.50;;;;;;2022424;29;20316;-71
2024/03/27 02:52:33;;;;;;;2.23;0.90;;;5.00;98.60;;;;;;2029653;29;20252;-71
2024/03/27 02:53:33;;;;;;;2.87;1.00;;;5.00;98.50;;;;;;2037890;29;20263;-71
2024/03/27 02:54:34;;;;;;;1.30;0.67;;;5.00;98.30;;;;;;2039502;29;20684;-71
2024/03/27 02:55:35;;;;;;;1.30;0.70;;;5.00;98.30;;;;;;2038210;29;20236;-71
2024/03/27 02:56:35;;;;;;;1.07;0.93;;;5.00;98.20;;;;;;2026221;29;20239;-71
2024/03/27 02:57:36;;;;;;;3.23;0.90;;;5.10;98.10;;;;;;2033326;29;20259;-71
2024/03/27 02:58:37;;;;;;;2.40;1.30;;;4.90;98.00;;;;;;2037635;29;20231;-71
2024/03/27 02:59:37;;;;;;;3.90;1.00;;;5.00;98.10;;;;;;2037805;29;20228;-71
2024/03/27 03:00:38;;;;;;;3.00;1.27;;;4.90;98.30;;;;;;2038686;29;20322;-71
2024/03/27 03:01:39;;;;;;;1.67;1.10;;;4.80;98.30;;;;;;2031331;29;20235;-71
2024/03/27 03:02:40;;;;;;;1.70;0.87;;;4.70;98.60;;;;;;2029087;29;20308;-71
2024/03/27 03:03:40;;;;;;;1.53;0.90;;;4.60;98.80;;;;;;2030003;29;20248;-71
2024/03/27 03:04:41;;;;;;;1.67;0.80;;;4.70;99.00;;;;;;2029617;29;20281;-71
2024/03/27 03:05:42;;;;;;;2.50;0.70;;;4.70;99.20;;;;;;2022801;29;20635;-71
2024/03/27 03:06:43;;;;;;;2.50;0.80;;;4.60;99.30;;;;;;2017724;29;20621;-71
2024/03/27 03:07:45;;;;;;;1.83;0.80;;;4.60;99.50;;;;;;2026046;29;20245;-71
2024/03/27 03:08:46;;;;;;;0.85;0.70;;;4.50;99.30;;;;;;2027348;29;20245;-71
2024/03/27 03:09:46;;;;;;;0.93;0.70;;;4.50;99.30;;;;;;2033525;29;20240;-71
2024/03/27 03:10:54;;;;;;;2.80;1.00;;;4.50;99.10;;;;;;2030258;29;20272;-71
2024/03/27 03:11:55;;;;;;;2.05;0.80;;;4.50;99.00;;;;;;2030876;29;20252;-71
2024/03/27 03:12:56;;;;;;;4.03;0.80;;;4.60;98.80;;;;;;2035137;29;20614;-71
2024/03/27 03:13:56;;;;;;;0.80;0.80;;;4.60;98.80;;;;;;2028596;29;20236;-71
2024/03/27 03:14:57;;;;;;;2.40;0.80;;;4.60;98.70;;;;;;2026524;29;20236;-71
2024/03/27 03:15:58;;;;;;;1.70;0.87;;;4.60;98.60;;;;;;2026399;29;20232;-71
2024/03/27 03:16:59;;;;;;;1.83;0.93;;;4.70;98.60;;;;;;2025437;29;20244;-71
2024/03/27 03:17:59;;;;;;;1.13;0.80;;;4.60;98.40;;;;;;2022346;29;20263;-71
2024/03/27 03:19:00;;;;;;;0.80;0.70;;;4.60;98.30;;;;;;2017644;29;20240;-71
2024/03/27 03:20:04;;;;;;;4.70;1.00;;;4.60;98.40;;;;;;2020872;29;20233;-70
2024/03/27 03:21:05;;;;;;;2.53;0.88;;;4.70;98.30;;;;;;2029533;29;20185;-71
2024/03/27 03:22:06;;;;;;;1.63;0.80;;;4.60;98.30;;;;;;2036838;29;20215;-71
2024/03/27 03:23:06;;;;;;;3.07;0.93;;;4.60;98.30;;;;;;2028320;29;20446;-71
2024/03/27 03:24:07;;;;;;;0.80;0.67;;;4.60;98.70;;;;;;2036822;29;20636;-71
2024/03/27 03:25:08;;;;;;;2.33;0.90;;;4.70;98.20;;;;;;2037552;29;20191;-71
2024/03/27 03:26:08;;;;;;;1.10;0.80;;;4.70;98.10;;;;;;2030959;29;20195;-71
2024/03/27 03:27:09;;;;;;;1.50;0.80;;;4.70;98.10;;;;;;2020738;29;20646;-71
2024/03/27 03:28:10;;;;;;;3.10;0.77;;;4.70;98.20;;;;;;2017590;29;20315;-71
2024/03/27 03:29:10;;;;;;;3.10;0.93;;;4.70;98.30;;;;;;2025853;29;20316;-71
2024/03/27 03:30:11;;;;;;;1.13;0.70;;;4.70;98.30;;;;;;2029532;29;20329;-71
2024/03/27 03:31:17;;;;;;;1.67;0.80;;;4.70;98.40;;;;;;2021141;29;20194;-71
2024/03/27 03:32:17;;;;;;;1.67;0.80;;;4.70;98.40;;;;;;2021958;29;20678;-71
2024/03/27 03:33:18;;;;;;;1.67;0.80;;;4.70;98.50;;;;;;2021506;29;20193;-71
2024/03/27 03:34:19;;;;;;;1.00;0.80;;;4.60;98.70;;;;;;2013518;29;20589;-71
2024/03/27 03:35:19;;;;;;;2.40;0.90;;;4.60;98.80;;;;;;2026359;29;20185;-71
2024/03/27 03:36:20;;;;;;;3.93;0.80;;;4.60;98.90;;;;;;2021621;29;20303;-71
2024/03/27 03:37:21;;;;;;;1.27;0.80;;;4.60;99.00;;;;;;2013830;29;20234;-71
2024/03/27 03:38:23;;;;;;;1.37;0.80;;;4.70;98.90;;;;;;2013913;29;20233;-71
2024/03/27 03:39:23;;;;;;;1.20;0.80;;;4.70;98.80;;;;;;2014034;29;20670;-71
2024/03/27 03:40:27;;;;;;;2.67;0.70;;;4.80;98.80;;;;;;2021609;29;20225;-71
2024/03/27 03:41:27;;;;;;;0.80;0.70;;;4.80;98.80;;;;;;2031008;29;20225;-71
2024/03/27 03:42:28;;;;;;;1.60;0.93;;;4.80;98.70;;;;;;2021998;29;20270;-71
2024/03/27 03:43:29;;;;;;;3.10;0.80;;;4.80;98.70;;;;;;2021628;29;20305;-71
2024/03/27 03:44:30;;;;;;;0.70;0.60;;;4.80;98.40;;;;;;2037116;29;20790;-71
2024/03/27 03:45:31;;;;;;;1.63;1.00;;;4.80;98.40;;;;;;2029549;29;20311;-71
2024/03/27 03:46:31;;;;;;;1.60;1.00;;;4.80;98.30;;;;;;2022217;29;20316;-71
2024/03/27 03:47:32;;;;;;;1.23;0.80;;;4.80;98.30;;;;;;2015421;29;20619;-71
2024/03/27 03:48:33;;;;;;;2.63;0.80;;;4.80;98.20;;;;;;2006095;29;20240;-71
2024/03/27 03:49:33;;;;;;;1.43;1.00;;;4.80;98.30;;;;;;2021850;29;20257;-71
2024/03/27 03:50:34;;;;;;;0.80;0.80;;;4.70;98.30;;;;;;2021663;29;20234;-72
2024/03/27 03:51:34;;;;;;;1.00;0.80;;;4.60;98.40;;;;;;2014241;29;20683;-71
2024/03/27 03:52:35;;;;;;;2.50;0.77;;;4.70;98.60;;;;;;2013873;29;20233;-71
2024/03/27 03:53:36;;;;;;;1.13;0.80;;;4.60;98.70;;;;;;2029559;29;20267;-71
2024/03/27 03:54:36;;;;;;;0.90;0.70;;;4.60;98.80;;;;;;2033269;29;20381;-71
2024/03/27 03:55:40;;;;;;;1.10;0.70;;;4.70;98.90;;;;;;2027204;29;20786;-71
2024/03/27 03:56:40;;;;;;;0.70;0.70;;;4.60;98.80;;;;;;2029891;29;20232;-71
2024/03/27 03:57:41;;;;;;;2.37;1.00;;;4.70;99.00;;;;;;2029816;29;20706;-71
2024/03/27 03:58:42;;;;;;;1.03;0.70;;;4.70;98.80;;;;;;2026642;29;20397;-71
2024/03/27 03:59:42;;;;;;;3.27;0.73;;;4.70;98.90;;;;;;2026768;29;20248;-71
2024/03/27 04:00:50;;;;;;;3.27;1.40;;;4.70;98.90;;;;;;2029071;29;20264;-71
2024/03/27 04:01:50;;;;;;;0.60;0.60;;;4.70;98.90;;;;;;2029929;29;20768;-72
2024/03/27 04:02:52;;;;;;;3.10;1.20;;;4.70;98.90;;;;;;2029315;29;20248;-71
2024/03/27 04:03:52;;;;;;;1.70;1.00;;;4.70;99.00;;;;;;2025445;29;20240;-72
2024/03/27 04:04:53;;;;;;;0.90;0.70;;;4.70;98.90;;;;;;2026893;29;20243;-72
2024/03/27 04:05:54;;;;;;;1.10;0.70;;;4.70;98.90;;;;;;2037198;29;20255;-72
2024/03/27 04:06:55;;;;;;;1.17;0.53;;;4.70;99.00;;;;;;2037723;29;20235;-72
2024/03/27 04:07:55;;;;;;;0.80;0.80;;;4.70;98.90;;;;;;2036865;29;20227;-72
2024/03/27 04:08:56;;;;;;;1.53;0.80;;;4.60;99.00;;;;;;2038080;29;20323;-72
2024/03/27 04:09:57;;;;;;;2.07;0.90;;;4.70;99.10;;;;;;2029657;29;20288;-72
2024/03/27 04:11:02;;;;;;;2.47;0.90;;;4.70;98.90;;;;;;2029115;29;20801;-72
2024/03/27 04:12:03;;;;;;;2.45;0.93;;;4.80;98.80;;;;;;2017403;29;20700;-71
2024/03/27 04:13:04;;;;;;;1.73;0.75;;;4.80;98.60;;;;;;2013845;29;20205;-72
2024/03/27 04:14:04;;;;;;;4.57;0.83;;;4.80;98.50;;;;;;2013941;29;20265;-71
2024/03/27 04:15:06;;;;;;;1.80;0.90;;;4.80;98.90;;;;;;2028380;29;20276;-71
2024/03/27 04:16:07;;;;;;;1.27;0.70;;;4.70;99.00;;;;;;2029154;29;20200;-71
2024/03/27 04:17:08;;;;;;;0.93;0.70;;;4.70;99.10;;;;;;2020904;29;20280;-71
2024/03/27 04:18:09;;;;;;;0.90;0.60;;;4.70;99.00;;;;;;2025623;29;20189;-72
2024/03/27 04:19:10;;;;;;;0.67;0.67;;;4.80;98.90;;;;;;2033106;29;20192;-71
2024/03/27 04:20:12;;;;;;;1.90;0.88;;;4.80;98.90;;;;;;2037041;29;20681;-72
2024/03/27 04:21:12;;;;;;;1.73;0.60;;;4.90;98.80;;;;;;2025553;29;20325;-72
2024/03/27 04:22:13;;;;;;;1.10;0.70;;;4.90;98.60;;;;;;2025562;29;20196;-72
2024/03/27 04:23:14;;;;;;;1.10;0.70;;;4.90;98.70;;;;;;2036489;29;20593;-71
2024/03/27 04:24:14;;;;;;;0.87;0.60;;;4.90;98.60;;;;;;2028879;29;20211;-72
2024/03/27 04:25:19;;;;;;;1.33;0.60;;;4.90;98.60;;;;;;2021369;29;20190;-72
2024/03/27 04:26:20;;;;;;;2.70;1.40;;;4.90;98.60;;;;;;2021409;29;20285;-72
2024/03/27 04:27:20;;;;;;;1.47;0.70;;;4.80;98.60;;;;;;2022172;29;20330;-71
2024/03/27 04:28:21;;;;;;;1.43;1.03;;;4.80;98.80;;;;;;2020943;29;20300;-71
2024/03/27 04:29:22;;;;;;;1.37;0.80;;;4.80;98.90;;;;;;2021952;29;20310;-72
2024/03/27 04:30:22;;;;;;;2.70;1.10;;;4.80;98.90;;;;;;2020999;29;20229;-72
2024/03/27 04:31:23;;;;;;;3.10;0.97;;;4.80;99.00;;;;;;2013980;29;20352;-72
2024/03/27 04:32:25;;;;;;;1.13;0.70;;;4.80;99.00;;;;;;2014842;29;20270;-72
2024/03/27 04:33:26;;;;;;;1.17;0.88;;;4.90;99.10;;;;;;2013439;29;20260;-72
2024/03/27 04:34:27;;;;;;;0.63;0.63;;;4.80;99.00;;;;;;2020895;29;20327;-72
2024/03/27 04:35:27;;;;;;;3.00;0.80;;;4.80;99.00;;;;;;2029843;29;20263;-71
2024/03/27 04:36:28;;;;;;;1.60;0.80;;;4.80;99.00;;;;;;2029054;29;20264;-71
2024/03/27 04:37:29;;;;;;;0.70;0.70;;;4.90;99.00;;;;;;2025098;29;20256;-72
2024/03/27 04:38:29;;;;;;;1.93;0.80;;;4.90;98.90;;;;;;2024750;29;20706;-72
2024/03/27 04:39:30;;;;;;;2.27;0.80;;;5.00;98.80;;;;;;2036647;29;20236;-72
2024/03/27 04:40:31;;;;;;;0.70;0.60;;;5.00;98.60;;;;;;2030873;29;20232;-71
2024/03/27 04:41:32;;;;;;;1.10;0.70;;;5.00;98.50;;;;;;2018539;29;20237;-72
2024/03/27 04:42:32;;;;;;;1.37;0.70;;;5.00;98.50;;;;;;2020274;29;20320;-71
2024/03/27 04:43:34;;;;;;;1.30;0.80;;;5.00;98.50;;;;;;2030164;29;20331;-72
2024/03/27 04:44:35;;;;;;;1.75;0.88;;;5.10;98.60;;;;;;2029079;29;20268;-71
2024/03/27 04:45:36;;;;;;;1.45;1.00;;;5.10;98.50;;;;;;2038522;29;20243;-71
2024/03/27 04:46:37;;;;;;;2.20;1.00;;;5.10;98.40;;;;;;2037033;29;20228;-72
2024/03/27 04:47:38;;;;;;;1.40;0.70;;;5.10;98.40;;;;;;2036600;29;20228;-72
2024/03/27 04:48:38;;;;;;;1.50;0.93;;;5.10;98.60;;;;;;2037212;29;20643;-72
2024/03/27 04:49:39;;;;;;;1.30;0.90;;;5.00;98.50;;;;;;2029775;29;20304;-72
2024/03/27 04:50:40;;;;;;;1.67;1.20;;;5.10;98.40;;;;;;2025155;29;20320;-72
2024/03/27 04:51:40;;;;;;;1.13;1.03;;;5.10;98.20;;;;;;2033413;29;20235;-72
2024/03/27 04:52:41;;;;;;;2.23;1.53;;;5.10;98.20;;;;;;2028229;29;21029;-72
2024/03/27 04:53:42;;;;;;;3.90;2.00;;;5.10;98.10;;;;;;2014617;29;20257;-72
2024/03/27 04:54:46;;;;;;;2.43;2.00;;;5.10;98.00;;;;;;2030484;29;20377;-72
2024/03/27 04:55:55;;;;;;;1.98;1.80;;;5.10;98.00;;;;;;2036273;29;20227;-71
2024/03/27 04:56:55;;;;;;;1.95;1.27;;;5.10;98.00;;;;;;2025808;29;20228;-72
2024/03/27 04:57:56;;;;;;;1.43;1.20;;;5.10;98.20;;;;;;2029369;29;20236;-72
2024/03/27 04:58:58;;;;;;;1.33;1.23;;;5.10;97.90;;;;;;2021196;29;20229;-72
2024/03/27 04:59:58;;;;;;;1.65;1.35;;;5.10;98.30;;;;;;2021717;29;20229;-72
2024/03/27 05:00:59;;;;;;;2.77;1.33;;;5.10;98.40;;;;;;2021346;29;20849;-72
2024/03/27 05:02:00;;;;;;;1.10;1.00;;;5.00;98.30;;;;;;2021523;29;20273;-72
2024/03/27 05:03:01;;;;;;;1.10;0.97;;;5.10;98.20;;;;;;2013268;29;20695;-71
2024/03/27 05:04:02;;;;;;;1.33;1.10;;;5.10;98.10;;;;;;2004754;29;20270;-71
2024/03/27 05:05:04;;;;;;;1.55;0.90;;;5.20;98.00;;;;;;2021603;29;20374;-69
2024/03/27 05:06:05;;;;;;;1.80;1.00;;;5.20;97.80;;;;;;2023037;29;20781;-69
2024/03/27 05:07:06;;;;;;;1.83;0.90;;;5.20;97.70;;;;;;2013406;29;20246;-70
2024/03/27 05:08:06;;;;;;;5.40;1.13;;;5.20;97.80;;;;;;2021268;29;20269;-69
2024/03/27 05:09:10;;;;;;;0.70;0.67;;;5.20;97.80;;;;;;2021124;29;20685;-69
2024/03/27 05:10:11;;;;;;;1.75;1.10;;;5.20;97.90;;;;;;2022344;29;20182;-70
2024/03/27 05:11:12;;;;;;;1.17;0.80;;;5.30;98.00;;;;;;2029572;29;20189;-70
2024/03/27 05:12:15;;;;;;;0.85;0.80;;;5.30;97.90;;;;;;2030018;29;20193;-70
2024/03/27 05:13:15;;;;;;;2.60;0.95;;;5.30;97.90;;;;;;2028901;29;20195;-70
2024/03/27 05:14:16;;;;;;;0.77;0.70;;;5.30;97.90;;;;;;2026572;29;20714;-70
2024/03/27 05:15:17;;;;;;;1.23;0.70;;;5.20;97.90;;;;;;2025445;29;20208;-70
2024/03/27 05:16:17;;;;;;;4.20;0.83;;;5.20;98.00;;;;;;2037811;29;20182;-71
2024/03/27 05:17:18;;;;;;;0.90;0.70;;;5.10;98.00;;;;;;2027563;29;20649;-72
2024/03/27 05:18:19;;;;;;;1.87;0.87;;;5.20;98.30;;;;;;2017570;29;20190;-71
2024/03/27 05:19:20;;;;;;;1.00;0.80;;;5.20;98.20;;;;;;2024847;29;20227;-72
2024/03/27 05:20:21;;;;;;;1.03;0.80;;;5.20;98.20;;;;;;2029202;29;21261;-72
2024/03/27 05:21:21;;;;;;;2.37;1.00;;;5.20;98.10;;;;;;2029013;29;20287;-72
2024/03/27 05:22:27;;;;;;;1.20;1.10;;;5.20;98.20;;;;;;2029581;29;20264;-71
2024/03/27 05:23:28;;;;;;;0.93;0.82;;;5.20;98.40;;;;;;2028713;29;20236;-71